sensor_id;sensor_type;location;lat;lon;timestamp;pressure;altitude;pressure_sealevel;temperature;humidity
52591;BME280;38483;42.620;25.394;2023-02-01T00:00:56;96916.06;;;2.50;83.47
52591;BME280;38483;42.620;25.394;2023-02-01T00:03:23;96913.50;;;2.50;83.11
52591;BME280;38483;42.620;25.394;2023-02-01T00:05:57;96907.25;;;2.66;82.30
52591;BME280;38483;42.620;25.394;2023-02-01T00:08:25;96911.56;;;2.64;81.04
52591;BME280;38483;42.620;25.394;2023-02-01T00:11:03;96925.03;;;2.72;80.65
52591;BME280;38483;42.620;25.394;2023-02-01T00:13:31;96924.94;;;2.78;80.98
52591;BME280;38483;42.620;25.394;2023-02-01T00:16:06;96928.31;;;2.82;80.75
52591;BME280;38483;42.620;25.394;2023-02-01T00:18:34;96923.31;;;2.74;80.99
52591;BME280;38483;42.620;25.394;2023-02-01T00:21:02;96919.16;;;2.69;80.73
52591;BME280;38483;42.620;25.394;2023-02-01T00:23:32;96930.91;;;2.80;81.03
52591;BME280;38483;42.620;25.394;2023-02-01T00:26:01;96938.66;;;2.74;79.57
52591;BME280;38483;42.620;25.394;2023-02-01T00:28:28;96937.66;;;2.83;79.33
52591;BME280;38483;42.620;25.394;2023-02-01T00:30:57;96921.53;;;2.79;79.41
52591;BME280;38483;42.620;25.394;2023-02-01T00:33:24;96938.56;;;2.80;79.76
52591;BME280;38483;42.620;25.394;2023-02-01T00:35:51;96920.94;;;2.65;79.64
52591;BME280;38483;42.620;25.394;2023-02-01T00:38:22;96926.63;;;2.79;80.07
52591;BME280;38483;42.620;25.394;2023-02-01T00:40:50;96928.34;;;2.79;80.06
52591;BME280;38483;42.620;25.394;2023-02-01T00:43:17;96931.72;;;2.82;79.88
52591;BME280;38483;42.620;25.394;2023-02-01T00:45:45;96927.50;;;2.80;79.33
52591;BME280;38483;42.620;25.394;2023-02-01T00:48:12;96914.81;;;2.74;79.49
52591;BME280;38483;42.620;25.394;2023-02-01T00:50:42;96930.16;;;2.74;79.38
52591;BME280;38483;42.620;25.394;2023-02-01T00:53:10;96908.25;;;2.59;79.85
52591;BME280;38483;42.620;25.394;2023-02-01T00:55:37;96912.25;;;2.72;79.80
52591;BME280;38483;42.620;25.394;2023-02-01T00:58:05;96922.34;;;2.81;79.69
52591;BME280;38483;42.620;25.394;2023-02-01T01:00:36;96919.81;;;2.78;79.74
52591;BME280;38483;42.620;25.394;2023-02-01T01:03:04;96919.91;;;2.75;79.28
52591;BME280;38483;42.620;25.394;2023-02-01T01:05:48;96922.44;;;2.75;78.98
52591;BME280;38483;42.620;25.394;2023-02-01T01:08:15;96913.19;;;2.68;79.16
52591;BME280;38483;42.620;25.394;2023-02-01T01:10:43;96904.56;;;2.75;79.12
52591;BME280;38483;42.620;25.394;2023-02-01T01:13:10;96916.66;;;2.64;77.88
52591;BME280;38483;42.620;25.394;2023-02-01T01:15:38;96916.72;;;2.61;75.75
52591;BME280;38483;42.620;25.394;2023-02-01T01:18:06;96902.16;;;2.68;74.50
52591;BME280;38483;42.620;25.394;2023-02-01T01:20:35;96916.63;;;2.67;74.93
52591;BME280;38483;42.620;25.394;2023-02-01T01:23:03;96921.66;;;2.70;75.00
52591;BME280;38483;42.620;25.394;2023-02-01T01:25:30;96928.34;;;2.79;75.12
52591;BME280;38483;42.620;25.394;2023-02-01T01:27:57;96894.66;;;2.57;74.12
52591;BME280;38483;42.620;25.394;2023-02-01T01:30:24;96914.00;;;2.72;74.64
52591;BME280;38483;42.620;25.394;2023-02-01T01:32:51;96925.00;;;2.75;74.00
52591;BME280;38483;42.620;25.394;2023-02-01T01:35:19;96919.94;;;2.72;74.62
52591;BME280;38483;42.620;25.394;2023-02-01T01:37:46;96925.00;;;2.75;74.08
52591;BME280;38483;42.620;25.394;2023-02-01T01:40:14;96919.78;;;2.81;72.99
52591;BME280;38483;42.620;25.394;2023-02-01T01:42:42;96913.00;;;2.80;72.36
52591;BME280;38483;42.620;25.394;2023-02-01T01:45:34;96908.78;;;2.76;72.93
52591;BME280;38483;42.620;25.394;2023-02-01T01:48:08;96913.78;;;2.84;72.95
52591;BME280;38483;42.620;25.394;2023-02-01T01:53:11;96895.53;;;2.55;73.37
52591;BME280;38483;42.620;25.394;2023-02-01T01:55:43;96922.50;;;2.74;73.50
52591;BME280;38483;42.620;25.394;2023-02-01T01:58:16;96916.41;;;2.79;73.10
52591;BME280;38483;42.620;25.394;2023-02-01T02:00:45;96916.53;;;2.73;73.18
52591;BME280;38483;42.620;25.394;2023-02-01T02:03:49;96917.25;;;2.80;73.54
52591;BME280;38483;42.620;25.394;2023-02-01T02:06:24;96918.03;;;2.83;74.41
52591;BME280;38483;42.620;25.394;2023-02-01T02:08:54;96924.81;;;2.86;74.43
52591;BME280;38483;42.620;25.394;2023-02-01T02:11:20;96923.94;;;2.87;74.25
52591;BME280;38483;42.620;25.394;2023-02-01T02:13:53;96928.13;;;2.92;73.58
52591;BME280;38483;42.620;25.394;2023-02-01T02:16:52;96924.03;;;2.82;73.58
52591;BME280;38483;42.620;25.394;2023-02-01T02:33:42;96912.13;;;2.81;71.65
52591;BME280;38483;42.620;25.394;2023-02-01T02:41:58;96925.88;;;2.74;70.48
52591;BME280;38483;42.620;25.394;2023-02-01T02:48:25;96929.97;;;2.83;70.49
52591;BME280;38483;42.620;25.394;2023-02-01T02:51:04;96917.19;;;2.84;70.55
52591;BME280;38483;42.620;25.394;2023-02-01T02:54:12;96920.75;;;2.76;70.48
52591;BME280;38483;42.620;25.394;2023-02-01T02:57:02;96917.19;;;2.83;70.25
52591;BME280;38483;42.620;25.394;2023-02-01T02:59:50;96905.66;;;2.61;68.99
52591;BME280;38483;42.620;25.394;2023-02-01T03:02:38;96903.78;;;2.70;69.83
52591;BME280;38483;42.620;25.394;2023-02-01T03:05:24;96911.34;;;2.76;69.89
52591;BME280;38483;42.620;25.394;2023-02-01T03:08:29;96919.81;;;2.78;69.26
52591;BME280;38483;42.620;25.394;2023-02-01T03:11:10;96869.25;;;2.48;68.46
52591;BME280;38483;42.620;25.394;2023-02-01T03:14:00;96917.94;;;2.89;67.58
52591;BME280;38483;42.620;25.394;2023-02-01T03:16:36;96929.97;;;2.84;68.21
52591;BME280;38483;42.620;25.394;2023-02-01T03:19:25;96929.31;;;2.73;70.18
52591;BME280;38483;42.620;25.394;2023-02-01T03:21:59;96942.09;;;2.73;67.91
52591;BME280;38483;42.620;25.394;2023-02-01T03:24:35;96939.47;;;2.78;66.32
52591;BME280;38483;42.620;25.394;2023-02-01T03:27:19;96936.13;;;2.73;64.25
52591;BME280;38483;42.620;25.394;2023-02-01T03:29:52;96940.25;;;2.81;63.25
52591;BME280;38483;42.620;25.394;2023-02-01T03:32:22;96935.06;;;2.86;63.26
52591;BME280;38483;42.620;25.394;2023-02-01T03:34:50;96935.09;;;2.84;63.04
52591;BME280;38483;42.620;25.394;2023-02-01T03:37:23;96954.50;;;2.94;62.65
52591;BME280;38483;42.620;25.394;2023-02-01T03:40:00;96944.50;;;2.81;62.21
52591;BME280;38483;42.620;25.394;2023-02-01T03:42:37;96947.84;;;2.86;62.40
52591;BME280;38483;42.620;25.394;2023-02-01T03:45:10;96955.47;;;2.87;62.37
52591;BME280;38483;42.620;25.394;2023-02-01T03:47:41;96951.34;;;2.80;61.79
52591;BME280;38483;42.620;25.394;2023-02-01T03:50:13;96952.06;;;2.88;62.31
52591;BME280;38483;42.620;25.394;2023-02-01T03:52:53;96943.63;;;2.83;60.28
52591;BME280;38483;42.620;25.394;2023-02-01T03:55:23;96948.69;;;2.86;60.93
52591;BME280;38483;42.620;25.394;2023-02-01T03:58:12;96946.94;;;2.88;61.15
52591;BME280;38483;42.620;25.394;2023-02-01T04:00:43;96958.97;;;2.83;60.67
52591;BME280;38483;42.620;25.394;2023-02-01T04:03:11;96956.47;;;2.79;60.96
52591;BME280;38483;42.620;25.394;2023-02-01T04:05:38;96964.03;;;2.86;60.94
52591;BME280;38483;42.620;25.394;2023-02-01T04:08:07;96957.34;;;2.78;60.46
52591;BME280;38483;42.620;25.394;2023-02-01T04:10:34;96959.84;;;2.82;61.17
52591;BME280;38483;42.620;25.394;2023-02-01T04:13:01;96964.09;;;2.82;61.10
52591;BME280;38483;42.620;25.394;2023-02-01T04:15:27;96967.50;;;2.82;60.03
52591;BME280;38483;42.620;25.394;2023-02-01T04:17:54;96970.94;;;2.81;60.49
52591;BME280;38483;42.620;25.394;2023-02-01T04:20:22;96972.56;;;2.85;61.02
52591;BME280;38483;42.620;25.394;2023-02-01T04:22:49;96970.88;;;2.83;61.32
52591;BME280;38483;42.620;25.394;2023-02-01T04:25:16;96977.03;;;2.73;61.95
52591;BME280;38483;42.620;25.394;2023-02-01T04:27:46;96966.06;;;2.66;62.00
52591;BME280;38483;42.620;25.394;2023-02-01T04:30:13;96967.59;;;2.76;62.50
52591;BME280;38483;42.620;25.394;2023-02-01T04:32:40;96960.03;;;2.72;62.16
52591;BME280;38483;42.620;25.394;2023-02-01T04:35:08;96957.47;;;2.70;62.44
52591;BME280;38483;42.620;25.394;2023-02-01T04:37:35;96962.66;;;2.67;62.89
52591;BME280;38483;42.620;25.394;2023-02-01T04:40:02;96959.34;;;2.61;62.44
52591;BME280;38483;42.620;25.394;2023-02-01T04:42:30;96954.38;;;2.50;63.60
52591;BME280;38483;42.620;25.394;2023-02-01T04:44:57;96947.84;;;2.34;63.87
52591;BME280;38483;42.620;25.394;2023-02-01T04:47:24;96952.81;;;2.43;64.39
52591;BME280;38483;42.620;25.394;2023-02-01T04:49:51;96957.81;;;2.49;63.63
52591;BME280;38483;42.620;25.394;2023-02-01T04:52:18;96946.81;;;2.44;62.96
52591;BME280;38483;42.620;25.394;2023-02-01T04:54:45;96943.38;;;2.46;63.85
52591;BME280;38483;42.620;25.394;2023-02-01T04:57:11;96959.56;;;2.47;63.52
52591;BME280;38483;42.620;25.394;2023-02-01T04:59:40;96973.97;;;2.51;64.10
52591;BME280;38483;42.620;25.394;2023-02-01T05:02:07;96974.81;;;2.53;63.86
52591;BME280;38483;42.620;25.394;2023-02-01T05:04:33;96973.97;;;2.51;64.10
52591;BME280;38483;42.620;25.394;2023-02-01T05:07:00;96976.53;;;2.49;64.19
52591;BME280;38483;42.620;25.394;2023-02-01T05:09:27;96976.63;;;2.45;63.93
52591;BME280;38483;42.620;25.394;2023-02-01T05:11:54;96976.66;;;2.42;63.80
52591;BME280;38483;42.620;25.394;2023-02-01T05:14:40;96968.91;;;2.48;64.57
52591;BME280;38483;42.620;25.394;2023-02-01T05:17:07;96973.97;;;2.51;63.90
52591;BME280;38483;42.620;25.394;2023-02-01T05:19:33;96976.56;;;2.48;64.46
52591;BME280;38483;42.620;25.394;2023-02-01T05:22:00;96983.50;;;2.40;64.84
52591;BME280;38483;42.620;25.394;2023-02-01T05:24:27;96983.47;;;2.43;64.54
52591;BME280;38483;42.620;25.394;2023-02-01T05:26:54;96989.41;;;2.43;64.46
52591;BME280;38483;42.620;25.394;2023-02-01T05:29:22;96975.91;;;2.35;63.90
52591;BME280;38483;42.620;25.394;2023-02-01T05:31:48;96991.97;;;2.43;64.18
52591;BME280;38483;42.620;25.394;2023-02-01T05:34:16;96987.78;;;2.39;63.78
52591;BME280;38483;42.620;25.394;2023-02-01T05:36:43;96953.22;;;2.16;63.27
52591;BME280;38483;42.620;25.394;2023-02-01T05:39:10;96991.25;;;2.37;64.04
52591;BME280;38483;42.620;25.394;2023-02-01T05:41:37;96999.59;;;2.46;62.86
52591;BME280;38483;42.620;25.394;2023-02-01T05:44:04;96998.63;;;2.54;63.29
52591;BME280;38483;42.620;25.394;2023-02-01T05:46:34;97001.09;;;2.61;60.89
52591;BME280;38483;42.620;25.394;2023-02-01T05:49:03;97006.09;;;2.67;61.86
52591;BME280;38483;42.620;25.394;2023-02-01T05:51:30;97004.41;;;2.68;63.05
52591;BME280;38483;42.620;25.394;2023-02-01T05:53:57;97007.78;;;2.70;62.79
52591;BME280;38483;42.620;25.394;2023-02-01T05:56:24;97004.28;;;2.72;63.25
52591;BME280;38483;42.620;25.394;2023-02-01T05:58:51;97007.66;;;2.76;63.55
52591;BME280;38483;42.620;25.394;2023-02-01T06:01:18;96986.47;;;2.69;62.96
52591;BME280;38483;42.620;25.394;2023-02-01T06:03:45;97011.00;;;2.79;63.61
52591;BME280;38483;42.620;25.394;2023-02-01T06:06:12;97011.88;;;2.78;64.35
52591;BME280;38483;42.620;25.394;2023-02-01T06:08:39;96990.13;;;2.53;64.20
52591;BME280;38483;42.620;25.394;2023-02-01T06:11:09;97005.22;;;2.68;64.45
52591;BME280;38483;42.620;25.394;2023-02-01T06:13:39;97006.84;;;2.74;63.95
52591;BME280;38483;42.620;25.394;2023-02-01T06:16:06;96996.72;;;2.66;63.92
52591;BME280;38483;42.620;25.394;2023-02-01T06:18:34;97004.25;;;2.75;63.98
52591;BME280;38483;42.620;25.394;2023-02-01T06:21:02;97013.56;;;2.79;62.92
52591;BME280;38483;42.620;25.394;2023-02-01T06:23:30;97017.69;;;2.88;62.91
52591;BME280;38483;42.620;25.394;2023-02-01T06:25:59;97023.53;;;2.96;63.34
52591;BME280;38483;42.620;25.394;2023-02-01T06:28:27;97015.81;;;2.97;62.76
52591;BME280;38483;42.620;25.394;2023-02-01T06:30:55;97010.69;;;2.99;62.80
52591;BME280;38483;42.620;25.394;2023-02-01T06:33:22;97019.19;;;3.01;63.74
52591;BME280;38483;42.620;25.394;2023-02-01T06:35:56;97008.81;;;3.08;63.90
52591;BME280;38483;42.620;25.394;2023-02-01T06:38:23;97012.16;;;3.12;64.35
52591;BME280;38483;42.620;25.394;2023-02-01T06:40:54;97013.94;;;3.08;64.39
52591;BME280;38483;42.620;25.394;2023-02-01T06:43:23;97027.38;;;3.19;64.62
52591;BME280;38483;42.620;25.394;2023-02-01T06:45:51;97001.91;;;3.13;63.97
52591;BME280;38483;42.620;25.394;2023-02-01T06:48:18;97027.16;;;3.33;64.81
52591;BME280;38483;42.620;25.394;2023-02-01T06:50:45;97024.63;;;3.32;64.17
52591;BME280;38483;42.620;25.394;2023-02-01T06:53:13;97027.94;;;3.37;64.13
52591;BME280;38483;42.620;25.394;2023-02-01T06:55:40;97027.69;;;3.03;64.81
52591;BME280;38483;42.620;25.394;2023-02-01T06:58:07;97033.41;;;3.15;65.05
52591;BME280;38483;42.620;25.394;2023-02-01T07:00:33;97031.56;;;3.25;64.17
52591;BME280;38483;42.620;25.394;2023-02-01T07:03:01;97032.34;;;3.28;63.85
52591;BME280;38483;42.620;25.394;2023-02-01T07:05:28;97022.47;;;3.09;64.14
52591;BME280;38483;42.620;25.394;2023-02-01T07:07:55;97034.19;;;3.20;63.78
52591;BME280;38483;42.620;25.394;2023-02-01T07:10:23;97013.03;;;3.12;64.40
52591;BME280;38483;42.620;25.394;2023-02-01T07:12:50;97035.03;;;3.21;64.87
52591;BME280;38483;42.620;25.394;2023-02-01T07:15:17;97042.72;;;3.19;65.34
52591;BME280;38483;42.620;25.394;2023-02-01T07:17:44;97049.41;;;3.29;65.74
52591;BME280;38483;42.620;25.394;2023-02-01T07:20:12;97030.25;;;3.01;66.68
52591;BME280;38483;42.620;25.394;2023-02-01T07:22:39;97051.28;;;3.18;68.22
52591;BME280;38483;42.620;25.394;2023-02-01T07:25:07;97018.63;;;2.84;68.19
52591;BME280;38483;42.620;25.394;2023-02-01T07:27:35;97062.63;;;3.04;68.98
52591;BME280;38483;42.620;25.394;2023-02-01T07:30:04;97068.47;;;3.10;68.46
52591;BME280;38483;42.620;25.394;2023-02-01T07:32:31;97069.31;;;3.12;68.99
52591;BME280;38483;42.620;25.394;2023-02-01T07:34:58;97074.31;;;3.18;68.72
52591;BME280;38483;42.620;25.394;2023-02-01T07:37:25;97067.56;;;3.14;68.39
52591;BME280;38483;42.620;25.394;2023-02-01T07:39:52;97076.94;;;3.14;68.47
52591;BME280;38483;42.620;25.394;2023-02-01T07:42:19;97071.81;;;3.14;68.61
52591;BME280;38483;42.620;25.394;2023-02-01T07:44:46;97082.78;;;3.23;68.72
52591;BME280;38483;42.620;25.394;2023-02-01T07:47:13;97075.81;;;3.32;67.62
52591;BME280;38483;42.620;25.394;2023-02-01T07:49:40;97028.78;;;2.88;68.31
52591;BME280;38483;42.620;25.394;2023-02-01T07:52:07;97062.38;;;3.17;67.94
52591;BME280;38483;42.620;25.394;2023-02-01T07:54:36;97092.91;;;3.29;68.19
52591;BME280;38483;42.620;25.394;2023-02-01T07:57:03;97087.75;;;3.31;67.57
52591;BME280;38483;42.620;25.394;2023-02-01T07:59:29;97091.25;;;3.25;67.10
52591;BME280;38483;42.620;25.394;2023-02-01T08:01:57;97081.06;;;3.22;67.06
52591;BME280;38483;42.620;25.394;2023-02-01T08:04:26;97079.41;;;3.20;67.26
52591;BME280;38483;42.620;25.394;2023-02-01T08:06:55;97065.03;;;3.11;67.55
52591;BME280;38483;42.620;25.394;2023-02-01T08:09:22;97080.94;;;3.32;67.48
52591;BME280;38483;42.620;25.394;2023-02-01T08:11:49;97088.47;;;3.39;67.53
52591;BME280;38483;42.620;25.394;2023-02-01T08:14:16;97078.91;;;3.49;67.22
52591;BME280;38483;42.620;25.394;2023-02-01T08:16:44;97060.28;;;3.41;68.14
52591;BME280;38483;42.620;25.394;2023-02-01T08:19:31;97065.34;;;3.44;67.73
52591;BME280;38483;42.620;25.394;2023-02-01T08:21:58;97063.84;;;3.34;67.03
52591;BME280;38483;42.620;25.394;2023-02-01T08:24:29;97090.94;;;3.42;67.60
52591;BME280;38483;42.620;25.394;2023-02-01T08:26:56;97090.00;;;3.49;68.08
52591;BME280;38483;42.620;25.394;2023-02-01T08:29:24;97089.03;;;3.55;67.47
52591;BME280;38483;42.620;25.394;2023-02-01T08:31:53;97094.22;;;3.52;67.57
52591;BME280;38483;42.620;25.394;2023-02-01T08:34:22;97088.22;;;3.54;67.36
52591;BME280;38483;42.620;25.394;2023-02-01T08:36:49;97100.91;;;3.59;67.13
52591;BME280;38483;42.620;25.394;2023-02-01T08:39:18;97101.09;;;3.50;68.08
52591;BME280;38483;42.620;25.394;2023-02-01T08:41:45;97101.78;;;3.58;68.18
52591;BME280;38483;42.620;25.394;2023-02-01T08:44:32;97096.72;;;3.55;68.70
52591;BME280;38483;42.620;25.394;2023-02-01T08:47:01;97089.09;;;3.52;69.01
52591;BME280;38483;42.620;25.394;2023-02-01T08:49:29;97085.50;;;3.62;68.76
52591;BME280;38483;42.620;25.394;2023-02-01T08:51:56;97099.16;;;3.61;69.75
52591;BME280;38483;42.620;25.394;2023-02-01T08:54:29;97077.88;;;3.59;70.25
52591;BME280;38483;42.620;25.394;2023-02-01T08:56:56;97101.63;;;3.67;69.25
52591;BME280;38483;42.620;25.394;2023-02-01T08:59:23;97052.50;;;3.47;69.71
52591;BME280;38483;42.620;25.394;2023-02-01T09:01:53;97083.59;;;3.73;69.49
52591;BME280;38483;42.620;25.394;2023-02-01T09:04:21;97086.78;;;3.84;69.84
52591;BME280;38483;42.620;25.394;2023-02-01T09:06:48;97087.56;;;3.89;69.69
52591;BME280;38483;42.620;25.394;2023-02-01T09:09:14;97085.97;;;3.82;70.85
52591;BME280;38483;42.620;25.394;2023-02-01T09:11:42;97084.22;;;3.84;70.85
52591;BME280;38483;42.620;25.394;2023-02-01T09:14:09;97077.41;;;3.84;71.28
52591;BME280;38483;42.620;25.394;2023-02-01T09:16:35;97070.97;;;3.64;71.83
52591;BME280;38483;42.620;25.394;2023-02-01T09:19:02;97080.84;;;3.82;72.91
52591;BME280;38483;42.620;25.394;2023-02-01T09:21:49;97083.19;;;3.94;72.30
52591;BME280;38483;42.620;25.394;2023-02-01T09:24:17;97087.47;;;3.93;72.95
52591;BME280;38483;42.620;25.394;2023-02-01T09:26:44;97082.25;;;3.99;72.46
52591;BME280;38483;42.620;25.394;2023-02-01T09:29:15;97086.47;;;4.00;71.82
52591;BME280;38483;42.620;25.394;2023-02-01T09:31:42;97064.44;;;3.93;72.47
52591;BME280;38483;42.620;25.394;2023-02-01T09:34:19;97081.50;;;3.93;72.79
52591;BME280;38483;42.620;25.394;2023-02-01T09:36:46;97084.81;;;3.98;72.89
52591;BME280;38483;42.620;25.394;2023-02-01T09:39:13;97077.00;;;4.04;73.65
52591;BME280;38483;42.620;25.394;2023-02-01T09:47:22;97074.56;;;3.98;74.00
52591;BME280;38483;42.620;25.394;2023-02-01T09:52:36;97062.81;;;3.42;76.70
52591;BME280;38483;42.620;25.394;2023-02-01T09:55:47;97065.34;;;3.44;77.21
52591;BME280;38483;42.620;25.394;2023-02-01T09:58:41;97041.78;;;3.25;77.27
52591;BME280;38483;42.620;25.394;2023-02-01T10:01:20;97052.78;;;3.32;77.61
52591;BME280;38483;42.620;25.394;2023-02-01T10:03:51;97039.16;;;3.29;78.56
52591;BME280;38483;42.620;25.394;2023-02-01T10:09:42;97036.44;;;3.39;77.48
52591;BME280;38483;42.620;25.394;2023-02-01T10:15:21;97033.78;;;3.43;76.98
52591;BME280;38483;42.620;25.394;2023-02-01T10:17:59;97018.44;;;3.43;76.94
52591;BME280;38483;42.620;25.394;2023-02-01T10:20:44;97037.66;;;3.64;77.08
52591;BME280;38483;42.620;25.394;2023-02-01T10:29:38;97012.72;;;3.73;76.09
52591;BME280;38483;42.620;25.394;2023-02-01T10:32:18;96988.63;;;3.83;75.17
52591;BME280;38483;42.620;25.394;2023-02-01T10:34:51;96995.88;;;4.04;73.42
52591;BME280;38483;42.620;25.394;2023-02-01T10:37:30;96999.00;;;4.17;73.45
52591;BME280;38483;42.620;25.394;2023-02-01T10:40:22;96985.41;;;4.15;73.69
52591;BME280;38483;42.620;25.394;2023-02-01T10:42:52;96989.09;;;4.40;72.78
52591;BME280;38483;42.620;25.394;2023-02-01T10:45:29;97000.03;;;4.48;72.68
52591;BME280;38483;42.620;25.394;2023-02-01T10:48:07;96977.81;;;4.47;72.33
52591;BME280;38483;42.620;25.394;2023-02-01T10:50:46;96992.00;;;4.62;71.79
52591;BME280;38483;42.620;25.394;2023-02-01T10:53:20;96989.34;;;4.66;71.08
52591;BME280;38483;42.620;25.394;2023-02-01T10:55:52;96972.28;;;4.65;70.80
52591;BME280;38483;42.620;25.394;2023-02-01T10:58:27;96962.78;;;4.69;70.96
52591;BME280;38483;42.620;25.394;2023-02-01T11:01:04;96974.94;;;4.96;68.92
52591;BME280;38483;42.620;25.394;2023-02-01T11:03:39;96975.28;;;5.16;69.31
52591;BME280;38483;42.620;25.394;2023-02-01T11:11:29;96963.28;;;5.49;68.42
52591;BME280;38483;42.620;25.394;2023-02-01T11:14:14;96956.75;;;5.37;68.00
52591;BME280;38483;42.620;25.394;2023-02-01T11:16:47;96956.63;;;5.42;68.33
52591;BME280;38483;42.620;25.394;2023-02-01T11:19:16;96955.53;;;5.50;67.87
52591;BME280;38483;42.620;25.394;2023-02-01T11:21:44;96897.19;;;5.25;67.84
52591;BME280;38483;42.620;25.394;2023-02-01T11:26:50;96921.41;;;5.76;64.60
52591;BME280;38483;42.620;25.394;2023-02-01T11:29:21;96935.28;;;6.00;64.70
52591;BME280;38483;42.620;25.394;2023-02-01T11:31:59;96937.91;;;5.98;64.68
52591;BME280;38483;42.620;25.394;2023-02-01T11:38:27;96889.97;;;5.68;64.87
52591;BME280;38483;42.620;25.394;2023-02-01T11:43:52;96921.63;;;5.99;64.64
52591;BME280;38483;42.620;25.394;2023-02-01T11:46:23;96915.59;;;6.00;63.08
52591;BME280;38483;42.620;25.394;2023-02-01T11:48:55;96917.09;;;6.07;64.01
52591;BME280;38483;42.620;25.394;2023-02-01T11:51:30;96908.94;;;6.21;63.03
52591;BME280;38483;42.620;25.394;2023-02-01T11:56:46;96906.75;;;6.36;61.68
52591;BME280;38483;42.620;25.394;2023-02-01T11:59:39;96906.78;;;6.35;61.67
52591;BME280;38483;42.620;25.394;2023-02-01T12:19:41;96900.44;;;6.19;61.67
52591;BME280;38483;42.620;25.394;2023-02-01T12:22:22;96859.69;;;6.07;62.41
52591;BME280;38483;42.620;25.394;2023-02-01T12:30:33;96875.66;;;6.16;64.54
52591;BME280;38483;42.620;25.394;2023-02-01T12:33:18;96874.94;;;5.85;65.93
52591;BME280;38483;42.620;25.394;2023-02-01T12:46:43;96857.78;;;6.39;63.33
52591;BME280;38483;42.620;25.394;2023-02-01T12:49:17;96876.34;;;6.49;60.87
52591;BME280;38483;42.620;25.394;2023-02-01T12:51:48;96863.09;;;6.61;60.54
52591;BME280;38483;42.620;25.394;2023-02-01T12:54:26;96874.13;;;6.89;61.36
52591;BME280;38483;42.620;25.394;2023-02-01T12:57:05;96860.59;;;7.09;59.24
52591;BME280;38483;42.620;25.394;2023-02-01T12:59:38;96871.81;;;7.06;58.58
52591;BME280;38483;42.620;25.394;2023-02-01T13:02:18;96871.44;;;7.17;57.03
52591;BME280;38483;42.620;25.394;2023-02-01T13:05:12;96868.88;;;7.17;56.91
52591;BME280;38483;42.620;25.394;2023-02-01T13:07:48;96835.63;;;7.34;56.37
52591;BME280;38483;42.620;25.394;2023-02-01T13:13:28;96863.72;;;7.40;56.20
52591;BME280;38483;42.620;25.394;2023-02-01T13:16:27;96859.41;;;7.40;56.44
52591;BME280;38483;42.620;25.394;2023-02-01T13:19:22;96860.09;;;7.22;57.43
52591;BME280;38483;42.620;25.394;2023-02-01T13:21:55;96859.31;;;7.20;56.01
52591;BME280;38483;42.620;25.394;2023-02-01T13:24:56;96867.25;;;7.14;56.27
52591;BME280;38483;42.620;25.394;2023-02-01T13:27:27;96863.00;;;7.36;56.86
52591;BME280;38483;42.620;25.394;2023-02-01T13:38:43;96863.22;;;7.30;55.81
52591;BME280;38483;42.620;25.394;2023-02-01T13:41:38;96836.41;;;7.13;54.71
52591;BME280;38483;42.620;25.394;2023-02-01T13:44:26;96860.97;;;7.21;56.64
52591;BME280;38483;42.620;25.394;2023-02-01T13:46:57;96852.88;;;7.09;54.11
52591;BME280;38483;42.620;25.394;2023-02-01T13:49:27;96867.34;;;7.11;52.14
52591;BME280;38483;42.620;25.394;2023-02-01T13:51:57;96865.91;;;7.03;53.45
52591;BME280;38483;42.620;25.394;2023-02-01T13:54:34;96839.59;;;6.95;53.64
52591;BME280;38483;42.620;25.394;2023-02-01T13:57:05;96859.19;;;6.99;54.12
52591;BME280;38483;42.620;25.394;2023-02-01T14:05:08;96861.75;;;7.00;52.97
52591;BME280;38483;42.620;25.394;2023-02-01T14:07:36;96860.16;;;6.96;54.30
52591;BME280;38483;42.620;25.394;2023-02-01T14:21:28;96839.88;;;6.87;55.27
52591;BME280;38483;42.620;25.394;2023-02-01T14:26:56;96842.94;;;6.74;56.05
52591;BME280;38483;42.620;25.394;2023-02-01T14:29:32;96845.50;;;6.74;55.23
52591;BME280;38483;42.620;25.394;2023-02-01T14:32:04;96850.38;;;6.81;55.32
52591;BME280;38483;42.620;25.394;2023-02-01T14:50:37;96856.91;;;6.91;52.99
52591;BME280;38483;42.620;25.394;2023-02-01T14:55:52;96869.28;;;6.80;52.82
52591;BME280;38483;42.620;25.394;2023-02-01T15:00:56;96855.00;;;6.72;51.82
52591;BME280;38483;42.620;25.394;2023-02-01T15:06:03;96874.28;;;6.85;49.43
52591;BME280;38483;42.620;25.394;2023-02-01T15:08:35;96879.13;;;6.94;49.01
52591;BME280;38483;42.620;25.394;2023-02-01T15:11:11;96865.69;;;6.86;50.14
52591;BME280;38483;42.620;25.394;2023-02-01T15:13:40;96883.56;;;6.89;51.05
52591;BME280;38483;42.620;25.394;2023-02-01T15:16:16;96895.84;;;6.81;51.33
52591;BME280;38483;42.620;25.394;2023-02-01T15:18:44;96895.13;;;6.77;50.77
52591;BME280;38483;42.620;25.394;2023-02-01T15:21:19;96898.50;;;6.79;50.54
52591;BME280;38483;42.620;25.394;2023-02-01T15:24:14;96886.81;;;6.69;51.58
52591;BME280;38483;42.620;25.394;2023-02-01T15:26:45;96884.84;;;6.77;49.04
52591;BME280;38483;42.620;25.394;2023-02-01T15:29:13;96899.34;;;6.80;49.47
52591;BME280;38483;42.620;25.394;2023-02-01T15:31:44;96887.34;;;6.79;49.87
52591;BME280;38483;42.620;25.394;2023-02-01T15:34:12;96897.00;;;6.72;50.02
52591;BME280;38483;42.620;25.394;2023-02-01T15:36:40;96899.53;;;6.74;48.83
52591;BME280;38483;42.620;25.394;2023-02-01T15:39:25;96895.22;;;6.74;50.07
52591;BME280;38483;42.620;25.394;2023-02-01T15:42:00;96882.53;;;6.70;49.66
52591;BME280;38483;42.620;25.394;2023-02-01T15:44:40;96884.91;;;6.74;50.09
52591;BME280;38483;42.620;25.394;2023-02-01T15:47:17;96896.38;;;6.66;50.68
52591;BME280;38483;42.620;25.394;2023-02-01T15:49:52;96889.75;;;6.58;52.13
52591;BME280;38483;42.620;25.394;2023-02-01T15:52:41;96901.88;;;6.55;53.45
52591;BME280;38483;42.620;25.394;2023-02-01T15:57:50;96905.66;;;6.43;53.58
52591;BME280;38483;42.620;25.394;2023-02-01T16:05:38;96915.47;;;6.32;52.43
52591;BME280;38483;42.620;25.394;2023-02-01T16:10:43;96926.00;;;6.23;54.28